sensor_id;sensor_type;location;lat;lon;timestamp;P1;durP1;ratioP1;P2;durP2;ratioP2
39848;SDS011;25518;47.878;15.914;2022-07-12T00:00:55;1.33;;;0.70;;
39848;SDS011;25518;47.878;15.914;2022-07-12T00:03:21;1.63;;;0.70;;
39848;SDS011;25518;47.878;15.914;2022-07-12T00:05:47;2.58;;;1.05;;
39848;SDS011;25518;47.878;15.914;2022-07-12T00:08:13;1.70;;;1.00;;
39848;SDS011;25518;47.878;15.914;2022-07-12T00:10:40;2.70;;;1.00;;
39848;SDS011;25518;47.878;15.914;2022-07-12T00:13:06;1.83;;;0.90;;
39848;SDS011;25518;47.878;15.914;2022-07-12T00:15:32;2.05;;;0.93;;
39848;SDS011;25518;47.878;15.914;2022-07-12T00:17:58;1.67;;;0.88;;
39848;SDS011;25518;47.878;15.914;2022-07-12T00:20:25;2.47;;;0.90;;
39848;SDS011;25518;47.878;15.914;2022-07-12T00:22:51;1.20;;;0.80;;
39848;SDS011;25518;47.878;15.914;2022-07-12T00:25:17;4.15;;;0.90;;
39848;SDS011;25518;47.878;15.914;2022-07-12T00:27:44;1.23;;;0.70;;
39848;SDS011;25518;47.878;15.914;2022-07-12T00:30:10;2.17;;;0.90;;
39848;SDS011;25518;47.878;15.914;2022-07-12T00:32:36;1.58;;;0.90;;
39848;SDS011;25518;47.878;15.914;2022-07-12T00:35:04;2.38;;;0.80;;
39848;SDS011;25518;47.878;15.914;2022-07-12T00:37:32;2.28;;;1.00;;
39848;SDS011;25518;47.878;15.914;2022-07-12T00:39:58;1.77;;;0.88;;
39848;SDS011;25518;47.878;15.914;2022-07-12T00:42:25;3.60;;;1.40;;
39848;SDS011;25518;47.878;15.914;2022-07-12T00:44:52;1.60;;;0.90;;
39848;SDS011;25518;47.878;15.914;2022-07-12T00:47:26;1.92;;;0.90;;
39848;SDS011;25518;47.878;15.914;2022-07-12T00:49:54;2.00;;;1.02;;
39848;SDS011;25518;47.878;15.914;2022-07-12T00:52:20;2.80;;;0.90;;
39848;SDS011;25518;47.878;15.914;2022-07-12T00:54:47;1.80;;;1.00;;
39848;SDS011;25518;47.878;15.914;2022-07-12T00:57:13;1.88;;;0.88;;
39848;SDS011;25518;47.878;15.914;2022-07-12T00:59:39;1.40;;;0.87;;
39848;SDS011;25518;47.878;15.914;2022-07-12T01:02:05;2.65;;;0.93;;
39848;SDS011;25518;47.878;15.914;2022-07-12T01:04:31;2.38;;;0.90;;
39848;SDS011;25518;47.878;15.914;2022-07-12T01:06:58;1.50;;;0.80;;
39848;SDS011;25518;47.878;15.914;2022-07-12T01:09:25;3.90;;;1.05;;
39848;SDS011;25518;47.878;15.914;2022-07-12T01:11:51;2.92;;;1.30;;
39848;SDS011;25518;47.878;15.914;2022-07-12T01:14:18;1.85;;;0.85;;
39848;SDS011;25518;47.878;15.914;2022-07-12T01:16:44;3.15;;;1.50;;
39848;SDS011;25518;47.878;15.914;2022-07-12T01:19:11;1.50;;;0.90;;
39848;SDS011;25518;47.878;15.914;2022-07-12T01:21:42;2.63;;;0.82;;
39848;SDS011;25518;47.878;15.914;2022-07-12T01:24:11;2.60;;;1.13;;
39848;SDS011;25518;47.878;15.914;2022-07-12T01:26:37;2.10;;;0.98;;
39848;SDS011;25518;47.878;15.914;2022-07-12T01:29:04;1.30;;;0.80;;
39848;SDS011;25518;47.878;15.914;2022-07-12T01:31:31;1.92;;;0.77;;
39848;SDS011;25518;47.878;15.914;2022-07-12T01:33:57;1.80;;;1.10;;
39848;SDS011;25518;47.878;15.914;2022-07-12T01:36:24;1.98;;;0.90;;
39848;SDS011;25518;47.878;15.914;2022-07-12T01:38:50;2.57;;;1.10;;
39848;SDS011;25518;47.878;15.914;2022-07-12T01:41:16;1.83;;;1.10;;
39848;SDS011;25518;47.878;15.914;2022-07-12T01:43:42;1.98;;;0.90;;
39848;SDS011;25518;47.878;15.914;2022-07-12T01:46:09;1.83;;;0.80;;
39848;SDS011;25518;47.878;15.914;2022-07-12T01:48:35;1.50;;;0.88;;
39848;SDS011;25518;47.878;15.914;2022-07-12T01:51:01;1.70;;;0.90;;
39848;SDS011;25518;47.878;15.914;2022-07-12T01:53:27;1.30;;;0.80;;
39848;SDS011;25518;47.878;15.914;2022-07-12T01:55:54;3.22;;;0.82;;
39848;SDS011;25518;47.878;15.914;2022-07-12T01:58:21;1.60;;;0.87;;
39848;SDS011;25518;47.878;15.914;2022-07-12T02:00:47;1.85;;;0.88;;
39848;SDS011;25518;47.878;15.914;2022-07-12T02:03:17;1.33;;;0.75;;
39848;SDS011;25518;47.878;15.914;2022-07-12T02:05:43;1.83;;;1.00;;
39848;SDS011;25518;47.878;15.914;2022-07-12T02:08:12;1.52;;;0.90;;
39848;SDS011;25518;47.878;15.914;2022-07-12T02:10:39;1.10;;;0.80;;
39848;SDS011;25518;47.878;15.914;2022-07-12T02:13:05;1.50;;;0.80;;
39848;SDS011;25518;47.878;15.914;2022-07-12T02:15:32;2.63;;;1.00;;
39848;SDS011;25518;47.878;15.914;2022-07-12T02:17:58;2.20;;;0.80;;
39848;SDS011;25518;47.878;15.914;2022-07-12T02:20:24;1.75;;;0.80;;
39848;SDS011;25518;47.878;15.914;2022-07-12T02:22:51;2.25;;;0.95;;
39848;SDS011;25518;47.878;15.914;2022-07-12T02:25:17;1.30;;;0.90;;
39848;SDS011;25518;47.878;15.914;2022-07-12T02:27:43;2.38;;;0.85;;
39848;SDS011;25518;47.878;15.914;2022-07-12T02:30:10;1.35;;;0.80;;
39848;SDS011;25518;47.878;15.914;2022-07-12T02:32:37;1.38;;;0.82;;
39848;SDS011;25518;47.878;15.914;2022-07-12T02:35:05;1.50;;;0.90;;
39848;SDS011;25518;47.878;15.914;2022-07-12T02:37:31;1.67;;;0.88;;
39848;SDS011;25518;47.878;15.914;2022-07-12T02:39:57;2.10;;;1.00;;
39848;SDS011;25518;47.878;15.914;2022-07-12T02:42:43;2.35;;;1.20;;
39848;SDS011;25518;47.878;15.914;2022-07-12T02:45:10;4.38;;;1.00;;
39848;SDS011;25518;47.878;15.914;2022-07-12T02:47:37;1.90;;;1.10;;
39848;SDS011;25518;47.878;15.914;2022-07-12T02:50:05;1.80;;;1.00;;
39848;SDS011;25518;47.878;15.914;2022-07-12T02:52:31;2.53;;;1.10;;
39848;SDS011;25518;47.878;15.914;2022-07-12T02:54:58;2.28;;;1.20;;
39848;SDS011;25518;47.878;15.914;2022-07-12T02:57:24;1.95;;;0.95;;
39848;SDS011;25518;47.878;15.914;2022-07-12T02:59:51;1.63;;;0.98;;
39848;SDS011;25518;47.878;15.914;2022-07-12T03:02:17;1.60;;;1.10;;
39848;SDS011;25518;47.878;15.914;2022-07-12T03:04:43;2.58;;;0.90;;
39848;SDS011;25518;47.878;15.914;2022-07-12T03:07:09;2.13;;;1.00;;
39848;SDS011;25518;47.878;15.914;2022-07-12T03:26:38;2.08;;;1.10;;
39848;SDS011;25518;47.878;15.914;2022-07-12T03:29:04;2.33;;;1.00;;
39848;SDS011;25518;47.878;15.914;2022-07-12T03:31:31;3.15;;;1.48;;
39848;SDS011;25518;47.878;15.914;2022-07-12T03:33:57;2.33;;;1.10;;
39848;SDS011;25518;47.878;15.914;2022-07-12T03:36:23;2.67;;;1.05;;
39848;SDS011;25518;47.878;15.914;2022-07-12T03:38:49;3.65;;;1.00;;
39848;SDS011;25518;47.878;15.914;2022-07-12T03:41:16;1.42;;;1.00;;
39848;SDS011;25518;47.878;15.914;2022-07-12T03:43:42;1.67;;;0.90;;
39848;SDS011;25518;47.878;15.914;2022-07-12T03:46:09;2.83;;;0.90;;
39848;SDS011;25518;47.878;15.914;2022-07-12T03:48:35;3.75;;;1.15;;
39848;SDS011;25518;47.878;15.914;2022-07-12T03:51:02;2.10;;;1.08;;
39848;SDS011;25518;47.878;15.914;2022-07-12T03:53:28;1.83;;;1.00;;
39848;SDS011;25518;47.878;15.914;2022-07-12T03:55:54;2.88;;;1.20;;
39848;SDS011;25518;47.878;15.914;2022-07-12T03:58:20;2.53;;;1.15;;
39848;SDS011;25518;47.878;15.914;2022-07-12T04:00:46;1.77;;;0.95;;
39848;SDS011;25518;47.878;15.914;2022-07-12T04:03:13;2.10;;;1.00;;
39848;SDS011;25518;47.878;15.914;2022-07-12T04:05:39;1.67;;;0.98;;
39848;SDS011;25518;47.878;15.914;2022-07-12T04:08:05;1.90;;;0.98;;
39848;SDS011;25518;47.878;15.914;2022-07-12T04:10:32;1.83;;;0.90;;
39848;SDS011;25518;47.878;15.914;2022-07-12T04:12:58;2.70;;;0.95;;
39848;SDS011;25518;47.878;15.914;2022-07-12T04:15:24;2.42;;;0.98;;
39848;SDS011;25518;47.878;15.914;2022-07-12T04:17:51;2.80;;;1.27;;
39848;SDS011;25518;47.878;15.914;2022-07-12T04:20:17;2.10;;;0.93;;
39848;SDS011;25518;47.878;15.914;2022-07-12T04:22:43;1.77;;;0.95;;
39848;SDS011;25518;47.878;15.914;2022-07-12T04:25:09;3.30;;;0.95;;
39848;SDS011;25518;47.878;15.914;2022-07-12T04:27:35;1.45;;;0.90;;
39848;SDS011;25518;47.878;15.914;2022-07-12T04:30:02;2.72;;;1.02;;
39848;SDS011;25518;47.878;15.914;2022-07-12T04:32:28;2.22;;;0.80;;
39848;SDS011;25518;47.878;15.914;2022-07-12T04:34:55;2.42;;;0.90;;
39848;SDS011;25518;47.878;15.914;2022-07-12T04:37:21;1.50;;;0.80;;
39848;SDS011;25518;47.878;15.914;2022-07-12T04:39:47;1.85;;;0.90;;
39848;SDS011;25518;47.878;15.914;2022-07-12T04:42:13;2.43;;;0.87;;
39848;SDS011;25518;47.878;15.914;2022-07-12T04:44:39;1.63;;;1.00;;
39848;SDS011;25518;47.878;15.914;2022-07-12T04:47:06;1.77;;;0.80;;
39848;SDS011;25518;47.878;15.914;2022-07-12T04:49:32;1.58;;;0.90;;
39848;SDS011;25518;47.878;15.914;2022-07-12T04:51:58;1.42;;;0.85;;
39848;SDS011;25518;47.878;15.914;2022-07-12T04:54:24;2.47;;;0.90;;
39848;SDS011;25518;47.878;15.914;2022-07-12T04:56:51;2.72;;;0.90;;
39848;SDS011;25518;47.878;15.914;2022-07-12T04:59:17;1.95;;;0.85;;
39848;SDS011;25518;47.878;15.914;2022-07-12T05:01:43;2.17;;;1.10;;
39848;SDS011;25518;47.878;15.914;2022-07-12T05:04:10;2.90;;;1.00;;
39848;SDS011;25518;47.878;15.914;2022-07-12T05:06:37;2.13;;;1.00;;
39848;SDS011;25518;47.878;15.914;2022-07-12T05:09:03;2.07;;;0.80;;
39848;SDS011;25518;47.878;15.914;2022-07-12T05:11:29;1.45;;;1.00;;
39848;SDS011;25518;47.878;15.914;2022-07-12T05:13:57;1.52;;;0.90;;
39848;SDS011;25518;47.878;15.914;2022-07-12T05:16:23;2.75;;;1.15;;
39848;SDS011;25518;47.878;15.914;2022-07-12T05:18:50;1.40;;;0.80;;
39848;SDS011;25518;47.878;15.914;2022-07-12T05:21:18;1.52;;;0.90;;
39848;SDS011;25518;47.878;15.914;2022-07-12T05:23:44;1.63;;;0.80;;
39848;SDS011;25518;47.878;15.914;2022-07-12T05:26:10;2.90;;;0.90;;
39848;SDS011;25518;47.878;15.914;2022-07-12T05:28:37;2.90;;;1.17;;
39848;SDS011;25518;47.878;15.914;2022-07-12T05:31:03;1.58;;;1.00;;
39848;SDS011;25518;47.878;15.914;2022-07-12T05:33:29;3.00;;;1.15;;
39848;SDS011;25518;47.878;15.914;2022-07-12T05:35:55;2.08;;;1.20;;
39848;SDS011;25518;47.878;15.914;2022-07-12T05:38:21;1.50;;;0.88;;
39848;SDS011;25518;47.878;15.914;2022-07-12T05:40:48;1.60;;;1.00;;
39848;SDS011;25518;47.878;15.914;2022-07-12T05:43:14;1.27;;;0.80;;
39848;SDS011;25518;47.878;15.914;2022-07-12T05:45:41;1.50;;;0.90;;
39848;SDS011;25518;47.878;15.914;2022-07-12T05:48:07;1.52;;;1.00;;
39848;SDS011;25518;47.878;15.914;2022-07-12T05:50:33;1.88;;;0.95;;
39848;SDS011;25518;47.878;15.914;2022-07-12T05:53:00;1.75;;;1.00;;
39848;SDS011;25518;47.878;15.914;2022-07-12T05:55:46;3.92;;;1.00;;
39848;SDS011;25518;47.878;15.914;2022-07-12T05:58:12;1.20;;;0.80;;
39848;SDS011;25518;47.878;15.914;2022-07-12T06:00:38;1.60;;;0.80;;
39848;SDS011;25518;47.878;15.914;2022-07-12T06:03:04;1.40;;;0.90;;
39848;SDS011;25518;47.878;15.914;2022-07-12T06:05:30;2.65;;;0.98;;
39848;SDS011;25518;47.878;15.914;2022-07-12T06:07:56;1.40;;;0.80;;
39848;SDS011;25518;47.878;15.914;2022-07-12T06:10:23;1.17;;;0.90;;
39848;SDS011;25518;47.878;15.914;2022-07-12T06:12:49;2.17;;;0.80;;
39848;SDS011;25518;47.878;15.914;2022-07-12T06:15:15;3.10;;;1.00;;
39848;SDS011;25518;47.878;15.914;2022-07-12T06:17:41;2.60;;;1.10;;
39848;SDS011;25518;47.878;15.914;2022-07-12T06:20:08;1.50;;;0.90;;
39848;SDS011;25518;47.878;15.914;2022-07-12T06:22:35;2.05;;;1.00;;
39848;SDS011;25518;47.878;15.914;2022-07-12T06:25:01;1.40;;;1.00;;
39848;SDS011;25518;47.878;15.914;2022-07-12T06:27:27;1.70;;;1.00;;
39848;SDS011;25518;47.878;15.914;2022-07-12T06:29:55;2.08;;;0.90;;
39848;SDS011;25518;47.878;15.914;2022-07-12T06:32:22;1.58;;;1.00;;
39848;SDS011;25518;47.878;15.914;2022-07-12T06:34:48;2.58;;;1.25;;
39848;SDS011;25518;47.878;15.914;2022-07-12T06:37:14;3.30;;;1.30;;
39848;SDS011;25518;47.878;15.914;2022-07-12T06:39:40;3.80;;;1.13;;
39848;SDS011;25518;47.878;15.914;2022-07-12T06:42:07;2.85;;;1.15;;
39848;SDS011;25518;47.878;15.914;2022-07-12T06:44:33;2.33;;;1.10;;
39848;SDS011;25518;47.878;15.914;2022-07-12T06:47:00;2.65;;;1.20;;
39848;SDS011;25518;47.878;15.914;2022-07-12T06:49:26;2.38;;;1.27;;
39848;SDS011;25518;47.878;15.914;2022-07-12T06:51:53;2.90;;;1.50;;
39848;SDS011;25518;47.878;15.914;2022-07-12T06:54:20;1.35;;;0.90;;
39848;SDS011;25518;47.878;15.914;2022-07-12T06:56:46;1.42;;;0.80;;
39848;SDS011;25518;47.878;15.914;2022-07-12T06:59:12;2.78;;;1.05;;
39848;SDS011;25518;47.878;15.914;2022-07-12T07:01:38;2.28;;;1.02;;
39848;SDS011;25518;47.878;15.914;2022-07-12T07:04:05;2.20;;;1.00;;
39848;SDS011;25518;47.878;15.914;2022-07-12T07:06:31;2.10;;;1.10;;
39848;SDS011;25518;47.878;15.914;2022-07-12T07:08:57;2.90;;;1.00;;
39848;SDS011;25518;47.878;15.914;2022-07-12T07:11:24;2.72;;;1.10;;
39848;SDS011;25518;47.878;15.914;2022-07-12T07:13:51;1.40;;;0.90;;
39848;SDS011;25518;47.878;15.914;2022-07-12T07:16:19;2.25;;;1.00;;
39848;SDS011;25518;47.878;15.914;2022-07-12T07:18:47;2.85;;;0.98;;
39848;SDS011;25518;47.878;15.914;2022-07-12T07:21:13;1.53;;;0.80;;
39848;SDS011;25518;47.878;15.914;2022-07-12T07:23:40;2.13;;;0.80;;
39848;SDS011;25518;47.878;15.914;2022-07-12T07:26:06;3.63;;;0.93;;
39848;SDS011;25518;47.878;15.914;2022-07-12T07:28:32;2.07;;;1.00;;
39848;SDS011;25518;47.878;15.914;2022-07-12T07:31:18;1.40;;;0.75;;
39848;SDS011;25518;47.878;15.914;2022-07-12T07:33:45;1.45;;;0.88;;
39848;SDS011;25518;47.878;15.914;2022-07-12T07:36:12;1.80;;;0.60;;
39848;SDS011;25518;47.878;15.914;2022-07-12T07:38:39;2.63;;;0.88;;
39848;SDS011;25518;47.878;15.914;2022-07-12T07:41:06;1.17;;;0.70;;
39848;SDS011;25518;47.878;15.914;2022-07-12T07:43:32;1.25;;;0.70;;
39848;SDS011;25518;47.878;15.914;2022-07-12T07:45:59;1.50;;;0.80;;
39848;SDS011;25518;47.878;15.914;2022-07-12T07:48:27;1.60;;;0.80;;
39848;SDS011;25518;47.878;15.914;2022-07-12T07:50:53;2.03;;;0.88;;
39848;SDS011;25518;47.878;15.914;2022-07-12T07:53:19;2.33;;;0.80;;
39848;SDS011;25518;47.878;15.914;2022-07-12T07:55:46;1.52;;;0.90;;
39848;SDS011;25518;47.878;15.914;2022-07-12T07:58:14;1.17;;;0.60;;
39848;SDS011;25518;47.878;15.914;2022-07-12T08:00:41;1.17;;;0.65;;
39848;SDS011;25518;47.878;15.914;2022-07-12T08:03:07;3.08;;;1.00;;
39848;SDS011;25518;47.878;15.914;2022-07-12T08:05:34;3.07;;;0.70;;
39848;SDS011;25518;47.878;15.914;2022-07-12T08:08:00;1.40;;;0.60;;
39848;SDS011;25518;47.878;15.914;2022-07-12T08:10:26;1.70;;;0.60;;
39848;SDS011;25518;47.878;15.914;2022-07-12T08:12:52;2.08;;;0.80;;
39848;SDS011;25518;47.878;15.914;2022-07-12T08:15:18;0.80;;;0.45;;
39848;SDS011;25518;47.878;15.914;2022-07-12T08:17:45;0.73;;;0.40;;
39848;SDS011;25518;47.878;15.914;2022-07-12T08:20:11;1.80;;;0.80;;
39848;SDS011;25518;47.878;15.914;2022-07-12T08:22:45;1.98;;;0.63;;
39848;SDS011;25518;47.878;15.914;2022-07-12T08:25:12;2.22;;;0.80;;
39848;SDS011;25518;47.878;15.914;2022-07-12T08:27:38;1.98;;;1.05;;
39848;SDS011;25518;47.878;15.914;2022-07-12T08:30:05;1.92;;;0.80;;
39848;SDS011;25518;47.878;15.914;2022-07-12T08:32:32;2.25;;;0.57;;
39848;SDS011;25518;47.878;15.914;2022-07-12T08:34:58;1.83;;;0.50;;
39848;SDS011;25518;47.878;15.914;2022-07-12T08:37:24;1.60;;;0.57;;
39848;SDS011;25518;47.878;15.914;2022-07-12T08:39:50;1.08;;;0.70;;
39848;SDS011;25518;47.878;15.914;2022-07-12T08:42:17;1.30;;;0.60;;
39848;SDS011;25518;47.878;15.914;2022-07-12T08:44:44;1.77;;;0.57;;
39848;SDS011;25518;47.878;15.914;2022-07-12T08:47:10;1.90;;;0.90;;
39848;SDS011;25518;47.878;15.914;2022-07-12T08:49:37;2.00;;;0.60;;
39848;SDS011;25518;47.878;15.914;2022-07-12T08:52:24;2.10;;;0.70;;
39848;SDS011;25518;47.878;15.914;2022-07-12T08:54:49;0.88;;;0.57;;
39848;SDS011;25518;47.878;15.914;2022-07-12T08:57:27;2.85;;;0.70;;
39848;SDS011;25518;47.878;15.914;2022-07-12T08:59:59;2.28;;;0.60;;
39848;SDS011;25518;47.878;15.914;2022-07-12T09:02:25;2.47;;;0.83;;
39848;SDS011;25518;47.878;15.914;2022-07-12T09:05:07;1.50;;;0.73;;
39848;SDS011;25518;47.878;15.914;2022-07-12T09:07:34;1.60;;;0.45;;
39848;SDS011;25518;47.878;15.914;2022-07-12T09:10:03;1.70;;;0.50;;
39848;SDS011;25518;47.878;15.914;2022-07-12T09:12:30;1.40;;;0.60;;
39848;SDS011;25518;47.878;15.914;2022-07-12T09:15:09;1.85;;;0.60;;
39848;SDS011;25518;47.878;15.914;2022-07-12T09:17:36;1.15;;;0.60;;
39848;SDS011;25518;47.878;15.914;2022-07-12T09:20:02;1.50;;;0.60;;
39848;SDS011;25518;47.878;15.914;2022-07-12T09:22:29;0.90;;;0.50;;
39848;SDS011;25518;47.878;15.914;2022-07-12T09:24:55;4.38;;;0.70;;
39848;SDS011;25518;47.878;15.914;2022-07-12T09:27:25;1.50;;;0.55;;
39848;SDS011;25518;47.878;15.914;2022-07-12T09:29:51;1.27;;;0.57;;
39848;SDS011;25518;47.878;15.914;2022-07-12T09:32:18;1.50;;;0.60;;
39848;SDS011;25518;47.878;15.914;2022-07-12T09:35:05;1.10;;;0.60;;
39848;SDS011;25518;47.878;15.914;2022-07-12T09:37:51;1.47;;;0.57;;
39848;SDS011;25518;47.878;15.914;2022-07-12T09:40:17;1.00;;;0.47;;
39848;SDS011;25518;47.878;15.914;2022-07-12T09:42:43;1.48;;;0.55;;
39848;SDS011;25518;47.878;15.914;2022-07-12T09:45:10;1.80;;;0.40;;
39848;SDS011;25518;47.878;15.914;2022-07-12T09:47:37;2.40;;;0.60;;
39848;SDS011;25518;47.878;15.914;2022-07-12T09:50:04;2.47;;;0.70;;
39848;SDS011;25518;47.878;15.914;2022-07-12T09:52:33;1.80;;;0.55;;
39848;SDS011;25518;47.878;15.914;2022-07-12T09:55:02;0.55;;;0.43;;
39848;SDS011;25518;47.878;15.914;2022-07-12T09:57:30;1.77;;;0.70;;
39848;SDS011;25518;47.878;15.914;2022-07-12T09:59:57;0.88;;;0.55;;
39848;SDS011;25518;47.878;15.914;2022-07-12T10:02:24;1.10;;;0.50;;
39848;SDS011;25518;47.878;15.914;2022-07-12T10:04:51;0.93;;;0.55;;
39848;SDS011;25518;47.878;15.914;2022-07-12T10:07:17;1.60;;;0.55;;
39848;SDS011;25518;47.878;15.914;2022-07-12T10:09:46;1.20;;;0.52;;
39848;SDS011;25518;47.878;15.914;2022-07-12T10:12:15;1.00;;;0.50;;
39848;SDS011;25518;47.878;15.914;2022-07-12T10:14:41;1.35;;;0.60;;
39848;SDS011;25518;47.878;15.914;2022-07-12T10:17:08;0.80;;;0.50;;
39848;SDS011;25518;47.878;15.914;2022-07-12T10:19:35;1.30;;;0.50;;
39848;SDS011;25518;47.878;15.914;2022-07-12T10:22:03;0.77;;;0.50;;
39848;SDS011;25518;47.878;15.914;2022-07-12T10:27:02;0.90;;;0.50;;
39848;SDS011;25518;47.878;15.914;2022-07-12T10:29:46;2.58;;;0.68;;
39848;SDS011;25518;47.878;15.914;2022-07-12T10:35:04;1.35;;;0.52;;
39848;SDS011;25518;47.878;15.914;2022-07-12T10:37:31;1.67;;;0.60;;
39848;SDS011;25518;47.878;15.914;2022-07-12T10:40:10;1.23;;;0.63;;
39848;SDS011;25518;47.878;15.914;2022-07-12T10:42:37;1.70;;;0.50;;
39848;SDS011;25518;47.878;15.914;2022-07-12T10:45:11;1.25;;;0.70;;
39848;SDS011;25518;47.878;15.914;2022-07-12T10:48:09;1.10;;;0.70;;
39848;SDS011;25518;47.878;15.914;2022-07-12T10:50:54;1.23;;;0.60;;
39848;SDS011;25518;47.878;15.914;2022-07-12T10:53:22;2.72;;;1.42;;
39848;SDS011;25518;47.878;15.914;2022-07-12T10:58:35;0.85;;;0.45;;
39848;SDS011;25518;47.878;15.914;2022-07-12T11:01:04;0.88;;;0.50;;
39848;SDS011;25518;47.878;15.914;2022-07-12T11:03:30;0.80;;;0.40;;
39848;SDS011;25518;47.878;15.914;2022-07-12T11:06:00;1.35;;;0.75;;
39848;SDS011;25518;47.878;15.914;2022-07-12T11:08:28;1.10;;;0.80;;
39848;SDS011;25518;47.878;15.914;2022-07-12T11:10:55;1.50;;;0.80;;
39848;SDS011;25518;47.878;15.914;2022-07-12T11:13:22;1.13;;;0.52;;
39848;SDS011;25518;47.878;15.914;2022-07-12T11:15:57;1.43;;;0.70;;
39848;SDS011;25518;47.878;15.914;2022-07-12T11:18:27;1.50;;;0.70;;
39848;SDS011;25518;47.878;15.914;2022-07-12T11:20:55;1.03;;;0.60;;
39848;SDS011;25518;47.878;15.914;2022-07-12T11:23:22;1.52;;;0.70;;
39848;SDS011;25518;47.878;15.914;2022-07-12T11:25:53;2.10;;;0.80;;
39848;SDS011;25518;47.878;15.914;2022-07-12T11:28:20;1.10;;;0.55;;
39848;SDS011;25518;47.878;15.914;2022-07-12T11:30:48;1.40;;;0.60;;
39848;SDS011;25518;47.878;15.914;2022-07-12T11:33:14;1.00;;;0.50;;
39848;SDS011;25518;47.878;15.914;2022-07-12T11:35:42;1.10;;;0.60;;
39848;SDS011;25518;47.878;15.914;2022-07-12T11:38:10;1.17;;;0.70;;
39848;SDS011;25518;47.878;15.914;2022-07-12T11:40:36;0.82;;;0.60;;
39848;SDS011;25518;47.878;15.914;2022-07-12T11:43:02;1.02;;;0.60;;
39848;SDS011;25518;47.878;15.914;2022-07-12T11:45:30;1.20;;;0.70;;
39848;SDS011;25518;47.878;15.914;2022-07-12T11:47:58;1.25;;;0.60;;
39848;SDS011;25518;47.878;15.914;2022-07-12T11:50:25;2.33;;;0.70;;
39848;SDS011;25518;47.878;15.914;2022-07-12T11:52:51;3.05;;;0.73;;
39848;SDS011;25518;47.878;15.914;2022-07-12T11:55:17;0.90;;;0.60;;
39848;SDS011;25518;47.878;15.914;2022-07-12T11:57:43;1.60;;;0.70;;
39848;SDS011;25518;47.878;15.914;2022-07-12T12:02:40;1.17;;;0.70;;
39848;SDS011;25518;47.878;15.914;2022-07-12T12:05:06;2.03;;;0.70;;
39848;SDS011;25518;47.878;15.914;2022-07-12T12:07:33;1.70;;;0.80;;
39848;SDS011;25518;47.878;15.914;2022-07-12T12:15:03;1.85;;;0.70;;
39848;SDS011;25518;47.878;15.914;2022-07-12T12:17:30;1.73;;;0.70;;
39848;SDS011;25518;47.878;15.914;2022-07-12T12:19:56;0.73;;;0.57;;
39848;SDS011;25518;47.878;15.914;2022-07-12T12:22:38;1.23;;;0.90;;
39848;SDS011;25518;47.878;15.914;2022-07-12T12:25:05;2.88;;;0.70;;
39848;SDS011;25518;47.878;15.914;2022-07-12T12:27:41;1.65;;;0.70;;
39848;SDS011;25518;47.878;15.914;2022-07-12T12:30:08;1.27;;;0.68;;
39848;SDS011;25518;47.878;15.914;2022-07-12T12:35:18;1.15;;;0.70;;
39848;SDS011;25518;47.878;15.914;2022-07-12T12:37:49;1.40;;;0.80;;
39848;SDS011;25518;47.878;15.914;2022-07-12T12:40:24;1.17;;;0.60;;
39848;SDS011;25518;47.878;15.914;2022-07-12T12:42:51;2.65;;;0.80;;
39848;SDS011;25518;47.878;15.914;2022-07-12T12:45:18;1.27;;;0.77;;
39848;SDS011;25518;47.878;15.914;2022-07-12T12:47:53;1.52;;;0.68;;
39848;SDS011;25518;47.878;15.914;2022-07-12T12:50:50;2.08;;;0.98;;
39848;SDS011;25518;47.878;15.914;2022-07-12T12:53:07;1.63;;;0.80;;
39848;SDS011;25518;47.878;15.914;2022-07-12T12:55:34;1.92;;;0.95;;
39848;SDS011;25518;47.878;15.914;2022-07-12T12:58:00;1.50;;;0.80;;
39848;SDS011;25518;47.878;15.914;2022-07-12T13:00:28;1.90;;;0.88;;
39848;SDS011;25518;47.878;15.914;2022-07-12T13:02:55;2.08;;;0.90;;
39848;SDS011;25518;47.878;15.914;2022-07-12T13:05:25;1.63;;;1.02;;
39848;SDS011;25518;47.878;15.914;2022-07-12T13:07:51;1.45;;;0.70;;
39848;SDS011;25518;47.878;15.914;2022-07-12T13:10:17;1.98;;;0.93;;
39848;SDS011;25518;47.878;15.914;2022-07-12T13:12:44;3.22;;;0.80;;
39848;SDS011;25518;47.878;15.914;2022-07-12T13:15:10;1.75;;;0.80;;
39848;SDS011;25518;47.878;15.914;2022-07-12T13:17:37;2.45;;;0.98;;
39848;SDS011;25518;47.878;15.914;2022-07-12T13:20:04;3.45;;;0.85;;
39848;SDS011;25518;47.878;15.914;2022-07-12T13:22:32;2.15;;;0.77;;
39848;SDS011;25518;47.878;15.914;2022-07-12T13:24:59;3.77;;;1.10;;
39848;SDS011;25518;47.878;15.914;2022-07-12T13:27:25;2.38;;;1.00;;
39848;SDS011;25518;47.878;15.914;2022-07-12T13:29:52;1.88;;;1.00;;
39848;SDS011;25518;47.878;15.914;2022-07-12T13:32:18;3.30;;;1.20;;
39848;SDS011;25518;47.878;15.914;2022-07-12T13:34:48;1.95;;;1.10;;
39848;SDS011;25518;47.878;15.914;2022-07-12T13:37:15;1.90;;;1.10;;
39848;SDS011;25518;47.878;15.914;2022-07-12T13:39:41;2.05;;;1.10;;
39848;SDS011;25518;47.878;15.914;2022-07-12T13:42:27;2.65;;;1.13;;
39848;SDS011;25518;47.878;15.914;2022-07-12T13:44:54;2.10;;;1.20;;
39848;SDS011;25518;47.878;15.914;2022-07-12T13:47:20;1.77;;;1.10;;
39848;SDS011;25518;47.878;15.914;2022-07-12T13:49:47;1.73;;;1.02;;
39848;SDS011;25518;47.878;15.914;2022-07-12T13:52:14;2.85;;;1.05;;
39848;SDS011;25518;47.878;15.914;2022-07-12T13:54:40;2.75;;;0.90;;
39848;SDS011;25518;47.878;15.914;2022-07-12T13:57:08;2.42;;;1.20;;
39848;SDS011;25518;47.878;15.914;2022-07-12T13:59:35;2.10;;;1.10;;
39848;SDS011;25518;47.878;15.914;2022-07-12T14:02:01;1.85;;;1.02;;
39848;SDS011;25518;47.878;15.914;2022-07-12T14:04:27;3.45;;;1.20;;
39848;SDS011;25518;47.878;15.914;2022-07-12T14:06:54;1.88;;;1.00;;
39848;SDS011;25518;47.878;15.914;2022-07-12T14:09:20;2.65;;;1.10;;
39848;SDS011;25518;47.878;15.914;2022-07-12T14:11:46;1.23;;;0.77;;
39848;SDS011;25518;47.878;15.914;2022-07-12T14:14:12;2.13;;;0.97;;
39848;SDS011;25518;47.878;15.914;2022-07-12T14:16:39;1.90;;;1.05;;
39848;SDS011;25518;47.878;15.914;2022-07-12T14:19:05;3.07;;;1.00;;
39848;SDS011;25518;47.878;15.914;2022-07-12T14:21:31;2.63;;;1.10;;
39848;SDS011;25518;47.878;15.914;2022-07-12T14:23:58;1.25;;;0.80;;
39848;SDS011;25518;47.878;15.914;2022-07-12T14:26:26;1.63;;;1.00;;
39848;SDS011;25518;47.878;15.914;2022-07-12T14:28:53;2.33;;;0.90;;
39848;SDS011;25518;47.878;15.914;2022-07-12T14:31:19;1.52;;;0.80;;
39848;SDS011;25518;47.878;15.914;2022-07-12T14:33:46;1.83;;;0.95;;
39848;SDS011;25518;47.878;15.914;2022-07-12T14:36:13;2.47;;;1.20;;
39848;SDS011;25518;47.878;15.914;2022-07-12T14:38:40;2.70;;;1.00;;
39848;SDS011;25518;47.878;15.914;2022-07-12T14:41:06;1.83;;;0.80;;
39848;SDS011;25518;47.878;15.914;2022-07-12T14:43:32;2.13;;;1.02;;
39848;SDS011;25518;47.878;15.914;2022-07-12T14:45:58;2.80;;;0.93;;
39848;SDS011;25518;47.878;15.914;2022-07-12T14:48:25;1.73;;;0.80;;
39848;SDS011;25518;47.878;15.914;2022-07-12T14:50:52;3.60;;;1.10;;
39848;SDS011;25518;47.878;15.914;2022-07-12T14:53:19;1.67;;;0.80;;
39848;SDS011;25518;47.878;15.914;2022-07-12T14:55:45;1.95;;;0.90;;
39848;SDS011;25518;47.878;15.914;2022-07-12T14:58:11;1.05;;;0.60;;
39848;SDS011;25518;47.878;15.914;2022-07-12T15:00:37;1.40;;;0.82;;
39848;SDS011;25518;47.878;15.914;2022-07-12T15:03:04;2.80;;;1.00;;
39848;SDS011;25518;47.878;15.914;2022-07-12T15:05:30;2.88;;;0.98;;
39848;SDS011;25518;47.878;15.914;2022-07-12T15:07:56;2.08;;;0.80;;
39848;SDS011;25518;47.878;15.914;2022-07-12T15:10:22;2.50;;;0.90;;